createdAt,value
2018-12-05T00:02:33.094Z,4.42
2018-12-05T00:06:45.896Z,4.39
2018-12-05T00:11:00.601Z,4.36
2018-12-05T00:15:14.980Z,4.28
2018-12-05T00:19:30.087Z,4.31
2018-12-05T00:23:41.706Z,4.35
2018-12-05T00:27:51.361Z,4.29
2018-12-05T00:32:06.523Z,4.40
2018-12-05T00:36:20.460Z,4.55
2018-12-05T00:40:33.926Z,4.63
2018-12-05T00:44:45.780Z,4.58
2018-12-05T00:48:59.280Z,4.51
2018-12-05T00:53:15.512Z,4.44
2018-12-05T00:57:24.975Z,4.34
2018-12-05T01:01:39.208Z,4.14
2018-12-05T01:05:52.843Z,4.08
2018-12-05T01:10:04.398Z,4.09
2018-12-05T01:14:16.358Z,4.16
2018-12-05T01:18:23.803Z,4.16
2018-12-05T01:22:39.473Z,4.22
2018-12-05T01:26:49.479Z,4.22
2018-12-05T01:30:56.529Z,4.18
2018-12-05T01:35:13.871Z,4.19
2018-12-05T01:39:24.177Z,4.22
2018-12-05T01:43:53.930Z,4.29
2018-12-05T01:48:01.807Z,4.35
2018-12-05T01:52:08.837Z,4.40
2018-12-05T01:56:19.268Z,4.40
2018-12-05T02:00:30.146Z,4.38
2018-12-05T02:04:45.647Z,4.31
2018-12-05T02:09:07.077Z,4.07
2018-12-05T02:13:20.879Z,3.97
2018-12-05T02:17:32.656Z,4.00
2018-12-05T02:21:39.557Z,4.13
2018-12-05T02:25:55.847Z,4.22
2018-12-05T02:30:07.591Z,4.27
2018-12-05T02:34:18.646Z,4.22
2018-12-05T02:38:32.086Z,4.10
2018-12-05T02:42:42.448Z,4.08
2018-12-05T02:47:01.628Z,4.19
2018-12-05T02:51:14.315Z,4.22
2018-12-05T02:55:29.757Z,4.24
2018-12-05T02:59:39.996Z,4.31
2018-12-05T03:04:01.773Z,4.32
2018-12-05T03:08:10.526Z,4.28
2018-12-05T03:12:27.085Z,4.22
2018-12-05T03:16:36.646Z,4.14
2018-12-05T03:20:46.638Z,4.09
2018-12-05T03:24:55.745Z,4.17
2018-12-05T03:29:11.732Z,4.17
2018-12-05T03:33:25.455Z,4.03
2018-12-05T03:37:43.786Z,3.89
2018-12-05T03:42:01.987Z,3.82
2018-12-05T03:46:16.764Z,3.69
2018-12-05T03:50:32.579Z,3.74
2018-12-05T03:54:46.193Z,3.78
2018-12-05T03:58:59.627Z,3.77
2018-12-05T04:03:16.559Z,3.75
2018-12-05T04:07:29.198Z,3.84
2018-12-05T04:11:46.388Z,3.82
2018-12-05T04:15:57.611Z,3.74
2018-12-05T04:20:10.251Z,3.63
2018-12-05T04:24:19.031Z,3.62
2018-12-05T04:28:32.818Z,3.67
2018-12-05T04:32:50.769Z,3.65
2018-12-05T04:37:03.088Z,3.70
2018-12-05T04:41:12.035Z,3.70
2018-12-05T04:45:21.960Z,3.72
2018-12-05T04:49:34.744Z,3.86
2018-12-05T04:53:46.666Z,3.82
2018-12-05T04:57:55.710Z,3.95
2018-12-05T05:02:09.192Z,4.02
2018-12-05T05:06:17.924Z,3.96
2018-12-05T05:10:44.038Z,3.91
2018-12-05T05:14:59.526Z,3.91
2018-12-05T05:19:18.606Z,3.91
2018-12-05T05:23:33.251Z,3.87
2018-12-05T05:27:49.605Z,3.85
2018-12-05T05:32:03.302Z,3.81
2018-12-05T05:36:12.463Z,3.78
2018-12-05T05:40:25.171Z,3.70
2018-12-05T05:44:32.105Z,3.66
2018-12-05T05:48:45.771Z,3.65
2018-12-05T05:52:55.700Z,3.68
2018-12-05T05:57:11.144Z,3.78
2018-12-05T06:01:19.750Z,3.86
2018-12-05T06:05:34.507Z,3.80
2018-12-05T06:09:43.839Z,3.80
2018-12-05T06:13:55.853Z,3.77
2018-12-05T06:18:06.646Z,3.69
2018-12-05T06:22:22.033Z,3.69
2018-12-05T06:26:38.094Z,3.73
2018-12-05T06:30:54.213Z,3.75
2018-12-05T06:35:20.521Z,3.75
2018-12-05T06:39:30.731Z,3.80
2018-12-05T06:43:45.091Z,3.95
2018-12-05T06:47:54.235Z,3.98
2018-12-05T06:52:07.684Z,3.95
2018-12-05T06:56:18.643Z,3.97
2018-12-05T07:00:31.247Z,4.03
2018-12-05T07:04:44.613Z,3.94
2018-12-05T07:08:56.331Z,3.95
2018-12-05T07:13:05.490Z,4.02
2018-12-05T07:17:15.331Z,3.95
2018-12-05T07:21:27.877Z,4.04
2018-12-05T07:25:39.529Z,4.01
2018-12-05T07:29:57.565Z,3.98
2018-12-05T07:34:16.132Z,4.03
2018-12-05T07:42:56.830Z,4.02
2018-12-05T07:47:08.614Z,3.93
2018-12-05T07:51:26.034Z,3.93
2018-12-05T07:55:41.127Z,4.03
2018-12-05T07:59:55.522Z,4.08
2018-12-05T08:04:09.048Z,4.16
2018-12-05T08:08:20.628Z,4.22
2018-12-05T08:12:31.824Z,4.18
2018-12-05T08:16:49.839Z,4.24
2018-12-05T08:20:58.313Z,4.29
2018-12-05T08:25:08.693Z,4.31
2018-12-05T08:29:19.395Z,4.44
2018-12-05T08:33:29.195Z,4.38
2018-12-05T08:37:44.846Z,4.44
2018-12-05T08:41:53.349Z,4.41
2018-12-05T08:46:03.333Z,4.55
2018-12-05T08:50:15.987Z,4.59
2018-12-05T08:54:28.816Z,4.63
2018-12-05T08:58:43.939Z,4.58
2018-12-05T09:02:59.155Z,4.83
2018-12-05T09:07:11.786Z,5.01
2018-12-05T09:11:26.164Z,5.20
2018-12-05T09:15:38.833Z,5.23
2018-12-05T09:19:57.671Z,5.09
2018-12-05T09:24:07.693Z,5.22
2018-12-05T09:28:17.191Z,5.29
2018-12-05T09:32:28.970Z,5.31
2018-12-05T09:36:39.791Z,5.38
2018-12-05T09:40:47.098Z,5.38
2018-12-05T09:45:03.234Z,5.49
2018-12-05T09:49:15.058Z,5.58
2018-12-05T09:53:26.899Z,5.80
2018-12-05T09:57:41.629Z,5.95
2018-12-05T10:01:51.700Z,6.24
2018-12-05T10:06:05.192Z,6.42
2018-12-05T10:10:24.304Z,6.47
2018-12-05T10:14:30.899Z,6.60
2018-12-05T10:18:42.852Z,6.73
2018-12-05T10:22:51.416Z,7.03
2018-12-05T10:27:06.964Z,7.10
2018-12-05T10:31:19.577Z,7.13
2018-12-05T10:35:29.835Z,6.96
2018-12-05T10:39:44.840Z,6.78
2018-12-05T10:44:00.529Z,6.67
2018-12-05T10:48:11.009Z,6.76
2018-12-05T10:52:30.893Z,6.76
2018-12-05T10:56:47.046Z,6.77
2018-12-05T11:01:13.091Z,6.60
2018-12-05T11:05:39.180Z,6.92
2018-12-05T11:10:07.369Z,6.84
2018-12-05T11:14:32.297Z,6.79
2018-12-05T11:18:58.631Z,6.96
2018-12-05T11:23:29.513Z,6.92
2018-12-05T11:27:42.087Z,6.81
2018-12-05T11:31:54.582Z,6.78
2018-12-05T11:36:07.241Z,6.90
2018-12-05T11:40:21.691Z,6.82
2018-12-05T11:44:33.700Z,6.87
2018-12-05T11:48:42.044Z,6.68
2018-12-05T11:52:55.661Z,6.60
2018-12-05T11:57:06.437Z,6.71
2018-12-05T12:01:19.095Z,6.65
2018-12-05T12:05:31.623Z,6.79
2018-12-05T12:09:47.974Z,6.73
2018-12-05T12:13:56.888Z,6.71
2018-12-05T12:18:10.472Z,6.91
2018-12-05T12:22:29.321Z,7.06
2018-12-05T12:26:37.846Z,7.03
2018-12-05T12:30:46.526Z,7.10
2018-12-05T12:35:03.317Z,7.19
2018-12-05T12:39:20.873Z,7.30
2018-12-05T12:43:33.039Z,7.47
2018-12-05T12:47:52.046Z,7.39
2018-12-05T12:52:04.715Z,7.28
2018-12-05T12:56:14.683Z,7.29
2018-12-05T13:00:28.956Z,7.28
2018-12-05T13:04:44.370Z,7.22
2018-12-05T13:08:55.942Z,7.32
2018-12-05T13:13:10.733Z,7.48
2018-12-05T13:17:22.389Z,7.41
2018-12-05T13:21:36.731Z,7.31
2018-12-05T13:25:45.987Z,7.32
2018-12-05T13:30:00.252Z,7.31
2018-12-05T13:34:08.585Z,7.28
2018-12-05T13:38:26.056Z,7.17
2018-12-05T13:42:36.951Z,7.05
2018-12-05T13:46:59.170Z,7.20
2018-12-05T13:51:14.535Z,7.25
2018-12-05T13:55:23.944Z,7.24
2018-12-05T13:59:38.387Z,7.14
2018-12-05T14:03:45.735Z,7.20
2018-12-05T14:07:54.449Z,7.12
2018-12-05T14:12:04.078Z,7.06
2018-12-05T14:16:24.742Z,7.05
2018-12-05T14:20:41.642Z,7.08
2018-12-05T14:24:55.108Z,7.09
2018-12-05T14:33:30.717Z,6.96
2018-12-05T14:37:47.594Z,7.02
2018-12-05T14:42:00.342Z,6.98
2018-12-05T14:46:12.662Z,6.85
2018-12-05T14:50:24.350Z,6.88
2018-12-05T14:54:37.926Z,6.86
2018-12-05T14:58:55.037Z,6.81
2018-12-05T15:03:04.367Z,6.77
2018-12-05T15:07:15.076Z,6.77
2018-12-05T15:11:26.749Z,6.75
2018-12-05T15:15:34.236Z,6.74
2018-12-05T15:19:46.885Z,6.77
2018-12-05T15:24:02.209Z,6.71
2018-12-05T15:28:16.969Z,6.70
2018-12-05T15:32:27.883Z,6.68
2018-12-05T15:36:45.382Z,6.69
2018-12-05T15:40:58.023Z,6.64
2018-12-05T15:45:06.405Z,6.63
2018-12-05T15:49:16.287Z,6.58
2018-12-05T15:53:26.159Z,6.57
2018-12-05T15:57:35.181Z,6.57
2018-12-05T16:01:44.526Z,6.63
2018-12-05T16:05:54.404Z,6.55
2018-12-05T16:10:05.103Z,6.50
2018-12-05T16:14:16.842Z,6.48
2018-12-05T16:18:28.454Z,6.49
2018-12-05T16:22:39.243Z,6.50
2018-12-05T16:26:48.190Z,6.45
2018-12-05T16:30:58.949Z,6.50
2018-12-05T16:35:16.165Z,6.55
2018-12-05T16:39:29.381Z,6.57
2018-12-05T16:43:38.377Z,6.62
2018-12-05T16:47:46.605Z,6.61
2018-12-05T16:51:53.193Z,6.66
2018-12-05T16:56:04.121Z,6.72
2018-12-05T17:00:20.069Z,6.73
2018-12-05T17:04:29.070Z,6.71
2018-12-05T17:08:47.951Z,6.73
2018-12-05T17:12:57.954Z,6.75
2018-12-05T17:17:08.005Z,6.80
2018-12-05T17:21:23.278Z,6.81
2018-12-05T17:25:31.970Z,6.78
2018-12-05T17:29:42.705Z,6.81
2018-12-05T17:33:58.122Z,6.81
2018-12-05T17:38:13.502Z,6.84
2018-12-05T17:42:27.559Z,6.82
2018-12-05T17:46:37.617Z,6.85
2018-12-05T17:50:48.318Z,6.82
2018-12-05T17:55:05.797Z,6.80
2018-12-05T17:59:16.711Z,6.78
2018-12-05T18:03:31.948Z,6.78
2018-12-05T18:07:49.034Z,6.87
2018-12-05T18:11:58.218Z,6.86
2018-12-05T18:16:13.540Z,6.87
2018-12-05T18:20:26.156Z,6.85
2018-12-05T18:24:38.693Z,6.88
2018-12-05T18:28:49.491Z,6.93
2018-12-05T18:33:04.329Z,6.94
2018-12-05T18:37:17.734Z,6.94
2018-12-05T18:41:30.604Z,7.04
2018-12-05T18:45:42.469Z,7.06
2018-12-05T18:49:54.134Z,7.04
2018-12-05T18:54:10.322Z,7.10
2018-12-05T18:58:18.949Z,7.12
2018-12-05T19:02:38.161Z,7.15
2018-12-05T19:06:55.335Z,7.12
2018-12-05T19:11:12.462Z,7.11
2018-12-05T19:15:24.135Z,7.12
2018-12-05T19:19:38.628Z,7.16
2018-12-05T19:23:53.199Z,7.14
2018-12-05T19:28:09.422Z,7.26
2018-12-05T19:32:20.391Z,7.25
2018-12-05T19:36:34.030Z,7.34
2018-12-05T19:40:44.967Z,7.30
2018-12-05T19:44:57.347Z,7.36
2018-12-05T19:49:05.998Z,7.32
2018-12-05T19:53:18.121Z,7.32
2018-12-05T19:57:26.129Z,7.32
2018-12-05T20:01:38.852Z,7.42
2018-12-05T20:05:56.029Z,7.40
2018-12-05T20:10:03.527Z,7.39
2018-12-05T20:14:15.654Z,7.35
2018-12-05T20:18:29.353Z,7.41
2018-12-05T20:22:41.769Z,7.33
2018-12-05T20:26:54.119Z,7.36
2018-12-05T20:31:01.798Z,7.40
2018-12-05T20:35:19.369Z,7.44
2018-12-05T20:39:28.440Z,7.40
2018-12-05T20:43:42.312Z,7.41
2018-12-05T20:47:59.186Z,7.51
2018-12-05T20:52:10.083Z,7.45
2018-12-05T20:56:27.146Z,7.43
2018-12-05T21:00:38.091Z,7.42
2018-12-05T21:04:51.013Z,7.50
2018-12-05T21:09:06.375Z,7.56
2018-12-05T21:13:20.232Z,7.53
2018-12-05T21:17:30.164Z,7.58
2018-12-05T21:21:46.283Z,7.56
2018-12-05T21:26:02.698Z,7.57
2018-12-05T21:30:15.697Z,7.56
2018-12-05T21:34:27.632Z,7.56
2018-12-05T21:38:41.381Z,7.62
2018-12-05T21:42:53.149Z,7.66
2018-12-05T21:47:05.905Z,7.67
2018-12-05T21:51:15.028Z,7.65
2018-12-05T21:55:26.449Z,7.66
2018-12-05T21:59:45.422Z,7.67
2018-12-05T22:03:55.663Z,7.66
2018-12-05T22:08:12.009Z,7.68
2018-12-05T22:12:23.783Z,7.71
2018-12-05T22:16:34.994Z,7.69
2018-12-05T22:21:44.102Z,7.72
2018-12-05T22:25:50.319Z,7.78
2018-12-05T22:30:00.275Z,7.81
2018-12-05T22:34:12.953Z,7.85
2018-12-05T22:38:26.417Z,7.81
2018-12-05T22:42:35.334Z,7.84
2018-12-05T22:46:47.909Z,7.85
2018-12-05T22:51:03.301Z,7.94
2018-12-05T22:55:15.378Z,7.94
2018-12-05T22:59:35.694Z,7.94
2018-12-05T23:03:47.819Z,8.04
2018-12-05T23:08:00.357Z,8.08
2018-12-05T23:12:15.794Z,8.09
2018-12-05T23:16:31.112Z,8.09
2018-12-05T23:20:44.609Z,8.21
2018-12-05T23:24:56.970Z,8.19
2018-12-05T23:29:02.787Z,8.10
2018-12-05T23:33:12.137Z,8.07
2018-12-05T23:37:24.763Z,8.13
2018-12-05T23:41:38.536Z,8.21
2018-12-05T23:45:56.806Z,8.18
2018-12-05T23:50:07.619Z,8.11
2018-12-05T23:54:17.611Z,8.05
2018-12-05T23:58:32.012Z,8.18
